Queen Isabella — A8IE2 — position and weather

sailwx.info

Track history (hours):
 
Tides and Currents Weather Stations Pressure Air Temp Water Temp Dewpoint Dewpoint Depression Visibility Wind Speed Wind Dir Waves Ship Positions

Queen Isabella

Last reported at 2015-Jul-05 08:33 UTC. Time now 2015-Jul-05 17:34 UTC.
Position N 39°15' W 009°57'.

Length 131 m; draft 7 m.

Type: Ship. MMSI: 636090959.

Date/timePositionNaut miles runAvg speedWind from/ knotsBaromVisibWave heightAir tempDewpointWater temp
2015-Jul-05 08:33N 39°15' W 009°57'1312.6
2015-Jul-05 07:33N 39°02' W 009°56'1312.5
2015-Jul-05 06:33N 38°49' W 009°56'1312.8
2015-Jul-05 05:33N 38°37' W 009°55'1312.6
2015-Jul-05 04:33N 38°25' W 009°51'1212.4
2015-Jul-05 03:33N 38°12' W 009°47'1212.1
2015-Jul-05 02:33N 38°01' W 009°44'1212.2
2015-Jul-05 01:33N 37°49' W 009°41'1312.7
2015-Jul-05 00:33N 37°36' W 009°37'1512.6
2015-Jul-04 23:20N 37°21' W 009°33'1012.8
2015-Jul-04 22:34N 37°12' W 009°30'1412.3
2015-Jul-04 21:25N 36°58' W 009°26'1212.0
2015-Jul-04 20:25N 36°47' W 009°20'1112.2
2015-Jul-04 19:33N 36°40' W 009°10'1716.4
2015-Jul-04 18:32N 36°38' W 008°49'9 9.1
2015-Jul-04 17:33N 36°41' W 008°39'1312.8
2015-Jul-04 16:33N 36°44' W 008°23'1312.9
2015-Jul-04 15:33N 36°46' W 008°07'1312.9
2015-Jul-04 14:33N 36°49' W 007°51'126 2.5
2015-Jul-02 12:10N 35°60' W 005°27'610.2
2015-Jul-02 11:33N 36°02' W 005°19'14610.9
2015-Jul-01 22:13N 36°24' W 002°21'3512.9
2015-Jul-01 19:32N 36°44' W 001°45'5512.8
2015-Jul-01 15:15N 37°20' W 000°53'912.7
2015-Jul-01 14:32N 37°26' W 000°45'1312.8
2015-Jul-01 13:33N 37°35' W 000°33'1312.5
2015-Jul-01 12:33N 37°45' W 000°25'1312.7
2015-Jul-01 11:32N 37°56' W 000°15'1412.8
2015-Jul-01 10:29N 38°08' W 000°06'1313.3
2015-Jul-01 09:31N 38°18' E 000°03'1212.9
2015-Jul-01 08:33N 38°29' E 000°11'2611.4
2015-Jul-01 06:16N 38°54' E 000°17'3612.6
2015-Jul-01 03:26N 39°26' W 000°04'1411.9
2015-Jul-01 02:17N 39°38' W 000°12'0 0.0
2015-Jun-30 05:33N 39°38' W 000°12'6 5.2
2015-Jun-30 04:25N 39°33' W 000°08'5412.6
2015-Jun-30 00:07N 38°45' E 000°25'711.7
2015-Jun-29 23:32N 38°38' E 000°24'1312.8
2015-Jun-29 22:33N 38°26' E 000°21'1312.9
2015-Jun-29 21:33N 38°13' E 000°18'1312.9
2015-Jun-29 20:33N 38°01' E 000°15'1313.0
2015-Jun-29 19:33N 37°48' E 000°12'1312.7
2015-Jun-29 18:33N 37°35' E 000°10'1312.8
2015-Jun-29 17:33N 37°23' E 000°07'1313.3
2015-Jun-29 16:33N 37°10' E 000°03'1313.0
2015-Jun-29 15:33N 36°57' E 000°01'1312.9
2015-Jun-29 14:33N 36°44' W 000°03'1313.4
2015-Jun-29 13:33N 36°31' W 000°05'1313.4
2015-Jun-29 12:33N 36°18' W 000°08'1313.4
2015-Jun-29 11:33N 36°05' W 000°11'1413.8
2015-Jun-29 10:33N 35°52' W 000°16'2 0.1
2015-Jun-28 16:33N 35°51' W 000°18'2 1.9
2015-Jun-28 15:33N 35°52' W 000°16'2 2.2
2015-Jun-28 14:33N 35°53' W 000°13'1 1.1
2015-Jun-28 13:34N 35°54' W 000°13'1 1.0
2015-Jun-28 12:33N 35°55' W 000°13'8 0.7
2015-Jun-28 01:30N 36°02' W 000°09'0 0.3
2015-Jun-28 00:25N 36°02' W 000°09'1 0.4
2015-Jun-27 22:33N 36°01' W 000°09'0 0.3
2015-Jun-27 21:33N 36°01' W 000°09'1 0.6
2015-Jun-27 20:33N 36°01' W 000°08'7 6.9
2015-Jun-27 19:33N 35°60' W 000°16'3 2.8
2015-Jun-27 18:33N 36°01' W 000°19'1 0.9
2015-Jun-27 17:33N 36°01' W 000°18'1 0.8
2015-Jun-27 16:33N 36°02' W 000°18'1 0.7
2015-Jun-27 15:33N 36°02' W 000°17'1 0.6
2015-Jun-27 14:34N 36°02' W 000°16'0 0.4
2015-Jun-27 13:33N 36°02' W 000°16'0 0.3
2015-Jun-27 12:33N 36°02' W 000°15'0 0.2
2015-Jun-27 11:33N 36°02' W 000°15'0 0.3
2015-Jun-27 10:33N 36°02' W 000°15'11 5.8
2015-Jun-27 08:33N 36°13' W 000°16'1 0.7
2015-Jun-27 07:33N 36°12' W 000°16'2 0.3
2015-Jun-27 02:26N 36°11' W 000°15'0 0.3
2015-Jun-27 01:33N 36°11' W 000°14'0 0.3
2015-Jun-27 00:33N 36°11' W 000°14'0 0.2
2015-Jun-26 23:34N 36°11' W 000°14'0 0.4
2015-Jun-26 22:33N 36°11' W 000°13'0 0.4
2015-Jun-26 21:33N 36°11' W 000°13'0 0.4
2015-Jun-26 20:33N 36°11' W 000°13'0 0.5
2015-Jun-26 19:33N 36°10' W 000°12'1 0.5
2015-Jun-26 18:33N 36°10' W 000°12'0 0.5
2015-Jun-26 17:33N 36°10' W 000°12'0 0.4
2015-Jun-26 16:33N 36°09' W 000°11'1 0.5
2015-Jun-26 15:33N 36°09' W 000°11'1 0.5
2015-Jun-26 14:33N 36°09' W 000°10'1 1.1
2015-Jun-26 13:33N 36°08' W 000°10'1111.1
2015-Jun-26 12:34N 36°08' W 000°24'10 9.8
2015-Jun-26 11:33N 36°10' W 000°36'1 0.9
2015-Jun-26 10:34N 36°09' W 000°35'1 0.8
2015-Jun-26 09:33N 36°09' W 000°34'1 0.7
2015-Jun-26 08:33N 36°09' W 000°33'1 0.5
2015-Jun-26 07:06N 36°09' W 000°32'0 0.5
2015-Jun-26 06:33N 36°09' W 000°32'1 0.5
2015-Jun-26 05:19N 36°09' W 000°31'0 0.5
2015-Jun-26 04:33N 36°09' W 000°31'1 0.5
2015-Jun-26 03:33N 36°08' W 000°30'1 0.6
2015-Jun-26 02:33N 36°08' W 000°29'1 0.5
2015-Jun-26 01:33N 36°08' W 000°29'1 0.6
2015-Jun-26 00:25N 36°07' W 000°28'1 0.8
2015-Jun-25 23:31N 36°07' W 000°28'1 0.8
2015-Jun-25 22:28N 36°06' W 000°27'1 0.8
2015-Jun-25 21:33N 36°06' W 000°26'1 0.9
2015-Jun-25 20:31N 36°05' W 000°25'1 1.1
2015-Jun-25 19:33N 36°05' W 000°24'1 1.0
2015-Jun-25 18:33N 36°04' W 000°23'2 1.1
2015-Jun-25 16:34N 36°03' W 000°20'1 1.1
2015-Jun-25 15:33N 36°03' W 000°19'1 1.0
2015-Jun-25 14:33N 36°03' W 000°18'  
Track history (hours):
 
Tides and Currents Weather Stations Pressure Air Temp Water Temp Dewpoint Dewpoint Depression Visibility Wind Speed Wind Dir Waves Ship Positions

Queen Isabella

Last reported at 2015-Jul-05 08:33 UTC. Time now 2015-Jul-05 17:34 UTC.
Position N 39°15' W 009°57'.

Length 131 m; draft 7 m.

Type: Ship. MMSI: 636090959.

Date/timePositionNaut miles runAvg speedWind from/ knotsBaromVisibWave heightAir tempDewpointWater temp
2015-Jul-05 08:33N 39°15' W 009°57'1312.6
2015-Jul-05 07:33N 39°02' W 009°56'1312.5
2015-Jul-05 06:33N 38°49' W 009°56'1312.8
2015-Jul-05 05:33N 38°37' W 009°55'1312.6
2015-Jul-05 04:33N 38°25' W 009°51'1212.4
2015-Jul-05 03:33N 38°12' W 009°47'1212.1
2015-Jul-05 02:33N 38°01' W 009°44'1212.2
2015-Jul-05 01:33N 37°49' W 009°41'1312.7
2015-Jul-05 00:33N 37°36' W 009°37'1512.6
2015-Jul-04 23:20N 37°21' W 009°33'1012.8
2015-Jul-04 22:34N 37°12' W 009°30'1412.3
2015-Jul-04 21:25N 36°58' W 009°26'1212.0
2015-Jul-04 20:25N 36°47' W 009°20'1112.2
2015-Jul-04 19:33N 36°40' W 009°10'1716.4
2015-Jul-04 18:32N 36°38' W 008°49'9 9.1
2015-Jul-04 17:33N 36°41' W 008°39'1312.8
2015-Jul-04 16:33N 36°44' W 008°23'1312.9
2015-Jul-04 15:33N 36°46' W 008°07'1312.9
2015-Jul-04 14:33N 36°49' W 007°51'126 2.5
2015-Jul-02 12:10N 35°60' W 005°27'610.2
2015-Jul-02 11:33N 36°02' W 005°19'14610.9
2015-Jul-01 22:13N 36°24' W 002°21'3512.9
2015-Jul-01 19:32N 36°44' W 001°45'5512.8
2015-Jul-01 15:15N 37°20' W 000°53'912.7
2015-Jul-01 14:32N 37°26' W 000°45'1312.8
2015-Jul-01 13:33N 37°35' W 000°33'1312.5
2015-Jul-01 12:33N 37°45' W 000°25'1312.7
2015-Jul-01 11:32N 37°56' W 000°15'1412.8
2015-Jul-01 10:29N 38°08' W 000°06'1313.3
2015-Jul-01 09:31N 38°18' E 000°03'1212.9
2015-Jul-01 08:33N 38°29' E 000°11'2611.4
2015-Jul-01 06:16N 38°54' E 000°17'3612.6
2015-Jul-01 03:26N 39°26' W 000°04'1411.9
2015-Jul-01 02:17N 39°38' W 000°12'0 0.0
2015-Jun-30 05:33N 39°38' W 000°12'6 5.2
2015-Jun-30 04:25N 39°33' W 000°08'5412.6
2015-Jun-30 00:07N 38°45' E 000°25'711.7
2015-Jun-29 23:32N 38°38' E 000°24'1312.8
2015-Jun-29 22:33N 38°26' E 000°21'1312.9
2015-Jun-29 21:33N 38°13' E 000°18'1312.9
2015-Jun-29 20:33N 38°01' E 000°15'1313.0
2015-Jun-29 19:33N 37°48' E 000°12'1312.7
2015-Jun-29 18:33N 37°35' E 000°10'1312.8
2015-Jun-29 17:33N 37°23' E 000°07'1313.3
2015-Jun-29 16:33N 37°10' E 000°03'1313.0
2015-Jun-29 15:33N 36°57' E 000°01'1312.9
2015-Jun-29 14:33N 36°44' W 000°03'1313.4
2015-Jun-29 13:33N 36°31' W 000°05'1313.4
2015-Jun-29 12:33N 36°18' W 000°08'1313.4
2015-Jun-29 11:33N 36°05' W 000°11'1413.8
2015-Jun-29 10:33N 35°52' W 000°16'2 0.1
2015-Jun-28 16:33N 35°51' W 000°18'2 1.9
2015-Jun-28 15:33N 35°52' W 000°16'2 2.2
2015-Jun-28 14:33N 35°53' W 000°13'1 1.1
2015-Jun-28 13:34N 35°54' W 000°13'1 1.0
2015-Jun-28 12:33N 35°55' W 000°13'8 0.7
2015-Jun-28 01:30N 36°02' W 000°09'0 0.3
2015-Jun-28 00:25N 36°02' W 000°09'1 0.4
2015-Jun-27 22:33N 36°01' W 000°09'0 0.3
2015-Jun-27 21:33N 36°01' W 000°09'1 0.6
2015-Jun-27 20:33N 36°01' W 000°08'7 6.9
2015-Jun-27 19:33N 35°60' W 000°16'3 2.8
2015-Jun-27 18:33N 36°01' W 000°19'1 0.9
2015-Jun-27 17:33N 36°01' W 000°18'1 0.8
2015-Jun-27 16:33N 36°02' W 000°18'1 0.7
2015-Jun-27 15:33N 36°02' W 000°17'1 0.6
2015-Jun-27 14:34N 36°02' W 000°16'0 0.4
2015-Jun-27 13:33N 36°02' W 000°16'0 0.3
2015-Jun-27 12:33N 36°02' W 000°15'0 0.2
2015-Jun-27 11:33N 36°02' W 000°15'0 0.3
2015-Jun-27 10:33N 36°02' W 000°15'11 5.8
2015-Jun-27 08:33N 36°13' W 000°16'1 0.7
2015-Jun-27 07:33N 36°12' W 000°16'2 0.3
2015-Jun-27 02:26N 36°11' W 000°15'0 0.3
2015-Jun-27 01:33N 36°11' W 000°14'0 0.3
2015-Jun-27 00:33N 36°11' W 000°14'0 0.2
2015-Jun-26 23:34N 36°11' W 000°14'0 0.4
2015-Jun-26 22:33N 36°11' W 000°13'0 0.4
2015-Jun-26 21:33N 36°11' W 000°13'0 0.4
2015-Jun-26 20:33N 36°11' W 000°13'0 0.5
2015-Jun-26 19:33N 36°10' W 000°12'1 0.5
2015-Jun-26 18:33N 36°10' W 000°12'0 0.5
2015-Jun-26 17:33N 36°10' W 000°12'0 0.4
2015-Jun-26 16:33N 36°09' W 000°11'1 0.5
2015-Jun-26 15:33N 36°09' W 000°11'1 0.5
2015-Jun-26 14:33N 36°09' W 000°10'1 1.1
2015-Jun-26 13:33N 36°08' W 000°10'1111.1
2015-Jun-26 12:34N 36°08' W 000°24'10 9.8
2015-Jun-26 11:33N 36°10' W 000°36'1 0.9
2015-Jun-26 10:34N 36°09' W 000°35'1 0.8
2015-Jun-26 09:33N 36°09' W 000°34'1 0.7
2015-Jun-26 08:33N 36°09' W 000°33'1 0.5
2015-Jun-26 07:06N 36°09' W 000°32'0 0.5
2015-Jun-26 06:33N 36°09' W 000°32'1 0.5
2015-Jun-26 05:19N 36°09' W 000°31'0 0.5
2015-Jun-26 04:33N 36°09' W 000°31'1 0.5
2015-Jun-26 03:33N 36°08' W 000°30'1 0.6
2015-Jun-26 02:33N 36°08' W 000°29'1 0.5
2015-Jun-26 01:33N 36°08' W 000°29'1 0.6
2015-Jun-26 00:25N 36°07' W 000°28'1 0.8
2015-Jun-25 23:31N 36°07' W 000°28'1 0.8
2015-Jun-25 22:28N 36°06' W 000°27'1 0.8
2015-Jun-25 21:33N 36°06' W 000°26'1 0.9
2015-Jun-25 20:31N 36°05' W 000°25'1 1.1
2015-Jun-25 19:33N 36°05' W 000°24'1 1.0
2015-Jun-25 18:33N 36°04' W 000°23'2 1.1
2015-Jun-25 16:34N 36°03' W 000°20'1 1.1
2015-Jun-25 15:33N 36°03' W 000°19'1 1.0
2015-Jun-25 14:33N 36°03' W 000°18'  

Dump ship's entire track history